sensor_id;sensor_type;location;lat;lon;timestamp;temperature;humidity
75838;SHT30;64480;52.040;113.502;2024-01-30T00:00:26;-30.43;61.43
75838;SHT30;64480;52.040;113.502;2024-01-30T00:03:30;-30.35;61.65
75838;SHT30;64480;52.040;113.502;2024-01-30T00:06:33;-30.35;61.53
75838;SHT30;64480;52.040;113.502;2024-01-30T00:09:37;-30.26;61.62
75838;SHT30;64480;52.040;113.502;2024-01-30T00:12:42;-30.19;61.73
75838;SHT30;64480;52.040;113.502;2024-01-30T00:15:46;-30.19;61.47
75838;SHT30;64480;52.040;113.502;2024-01-30T00:18:49;-30.29;61.05
75838;SHT30;64480;52.040;113.502;2024-01-30T00:21:53;-30.36;60.64
75838;SHT30;64480;52.040;113.502;2024-01-30T00:24:57;-30.47;60.38
75838;SHT30;64480;52.040;113.502;2024-01-30T00:28:05;-30.63;60.16
75838;SHT30;64480;52.040;113.502;2024-01-30T00:31:09;-30.76;60.01
75838;SHT30;64480;52.040;113.502;2024-01-30T00:34:16;-30.82;60.16
75838;SHT30;64480;52.040;113.502;2024-01-30T00:37:20;-30.74;60.45
75838;SHT30;64480;52.040;113.502;2024-01-30T00:40:25;-30.74;60.47
75838;SHT30;64480;52.040;113.502;2024-01-30T00:43:29;-30.65;60.21
75838;SHT30;64480;52.040;113.502;2024-01-30T00:46:33;-30.79;59.83
75838;SHT30;64480;52.040;113.502;2024-01-30T00:49:37;-30.93;59.57
75838;SHT30;64480;52.040;113.502;2024-01-30T00:52:41;-30.99;59.84
75838;SHT30;64480;52.040;113.502;2024-01-30T00:55:48;-30.88;60.48
75838;SHT30;64480;52.040;113.502;2024-01-30T00:58:51;-30.69;60.87
75838;SHT30;64480;52.040;113.502;2024-01-30T01:01:56;-30.64;60.92
75838;SHT30;64480;52.040;113.502;2024-01-30T01:05:04;-30.55;61.05
75838;SHT30;64480;52.040;113.502;2024-01-30T01:08:08;-30.36;61.35
75838;SHT30;64480;52.040;113.502;2024-01-30T01:11:12;-30.15;61.66
75838;SHT30;64480;52.040;113.502;2024-01-30T01:14:16;-30.01;61.41
75838;SHT30;64480;52.040;113.502;2024-01-30T01:17:19;-29.94;60.72
75838;SHT30;64480;52.040;113.502;2024-01-30T01:20:22;-29.78;60.49
75838;SHT30;64480;52.040;113.502;2024-01-30T01:23:26;-29.69;60.31
75838;SHT30;64480;52.040;113.502;2024-01-30T01:26:29;-29.66;60.01
75838;SHT30;64480;52.040;113.502;2024-01-30T01:29:33;-29.69;59.95
75838;SHT30;64480;52.040;113.502;2024-01-30T01:32:37;-29.81;59.54
75838;SHT30;64480;52.040;113.502;2024-01-30T01:35:41;-29.77;60.27
75838;SHT30;64480;52.040;113.502;2024-01-30T01:38:48;-29.87;60.27
75838;SHT30;64480;52.040;113.502;2024-01-30T01:41:51;-29.88;60.42
75838;SHT30;64480;52.040;113.502;2024-01-30T01:44:55;-29.84;60.69
75838;SHT30;64480;52.040;113.502;2024-01-30T01:47:59;-29.78;61.05
75838;SHT30;64480;52.040;113.502;2024-01-30T01:51:02;-29.53;61.44
75838;SHT30;64480;52.040;113.502;2024-01-30T01:54:10;-29.36;61.59
75838;SHT30;64480;52.040;113.502;2024-01-30T01:57:13;-29.18;61.07
75838;SHT30;64480;52.040;113.502;2024-01-30T02:00:18;-29.12;60.69
75838;SHT30;64480;52.040;113.502;2024-01-30T02:03:23;-29.05;60.34
75838;SHT30;64480;52.040;113.502;2024-01-30T02:06:29;-29.00;60.03
75838;SHT30;64480;52.040;113.502;2024-01-30T02:09:32;-29.10;59.55
75838;SHT30;64480;52.040;113.502;2024-01-30T02:12:39;-29.18;59.23
75838;SHT30;64480;52.040;113.502;2024-01-30T02:15:43;-29.11;59.43
75838;SHT30;64480;52.040;113.502;2024-01-30T02:18:46;-28.98;59.84
75838;SHT30;64480;52.040;113.502;2024-01-30T02:21:52;-28.88;59.71
75838;SHT30;64480;52.040;113.502;2024-01-30T02:24:57;-28.76;59.51
75838;SHT30;64480;52.040;113.502;2024-01-30T02:28:01;-28.63;59.37
75838;SHT30;64480;52.040;113.502;2024-01-30T02:31:08;-28.52;59.26
75838;SHT30;64480;52.040;113.502;2024-01-30T02:34:12;-28.37;59.14
75838;SHT30;64480;52.040;113.502;2024-01-30T02:37:16;-28.13;59.12
75838;SHT30;64480;52.040;113.502;2024-01-30T02:40:20;-28.04;58.87
75838;SHT30;64480;52.040;113.502;2024-01-30T02:43:24;-27.88;58.56
75838;SHT30;64480;52.040;113.502;2024-01-30T02:46:27;-27.78;58.38
75838;SHT30;64480;52.040;113.502;2024-01-30T02:49:31;-27.65;58.05
75838;SHT30;64480;52.040;113.502;2024-01-30T02:52:36;-27.66;57.75
75838;SHT30;64480;52.040;113.502;2024-01-30T02:55:40;-27.61;57.62
75838;SHT30;64480;52.040;113.502;2024-01-30T02:58:43;-27.53;57.53
75838;SHT30;64480;52.040;113.502;2024-01-30T03:01:48;-27.43;57.42
75838;SHT30;64480;52.040;113.502;2024-01-30T03:04:51;-27.27;57.67
75838;SHT30;64480;52.040;113.502;2024-01-30T03:07:55;-27.09;57.76
75838;SHT30;64480;52.040;113.502;2024-01-30T03:11:00;-26.82;57.84
75838;SHT30;64480;52.040;113.502;2024-01-30T03:14:06;-26.71;57.51
75838;SHT30;64480;52.040;113.502;2024-01-30T03:17:13;-26.63;57.06
75838;SHT30;64480;52.040;113.502;2024-01-30T03:20:17;-26.54;56.86
75838;SHT30;64480;52.040;113.502;2024-01-30T03:23:21;-26.60;56.41
75838;SHT30;64480;52.040;113.502;2024-01-30T03:26:24;-26.44;56.83
75838;SHT30;64480;52.040;113.502;2024-01-30T03:29:27;-26.21;57.24
75838;SHT30;64480;52.040;113.502;2024-01-30T03:32:31;-25.98;57.52
75838;SHT30;64480;52.040;113.502;2024-01-30T03:35:35;-25.97;57.01
75838;SHT30;64480;52.040;113.502;2024-01-30T03:38:39;-25.84;56.76
75838;SHT30;64480;52.040;113.502;2024-01-30T03:41:43;-25.76;56.64
75838;SHT30;64480;52.040;113.502;2024-01-30T03:44:48;-25.77;56.35
75838;SHT30;64480;52.040;113.502;2024-01-30T03:47:51;-25.74;55.96
75838;SHT30;64480;52.040;113.502;2024-01-30T03:50:54;-25.72;55.86
75838;SHT30;64480;52.040;113.502;2024-01-30T03:53:58;-25.70;55.82
75838;SHT30;64480;52.040;113.502;2024-01-30T03:57:02;-25.56;56.15
75838;SHT30;64480;52.040;113.502;2024-01-30T04:00:08;-25.32;56.84
75838;SHT30;64480;52.040;113.502;2024-01-30T04:03:15;-25.37;56.25
75838;SHT30;64480;52.040;113.502;2024-01-30T04:06:19;-25.23;56.27
75838;SHT30;64480;52.040;113.502;2024-01-30T04:09:22;-25.28;55.66
75838;SHT30;64480;52.040;113.502;2024-01-30T04:12:26;-25.28;55.68
75838;SHT30;64480;52.040;113.502;2024-01-30T04:15:29;-25.14;56.11
75838;SHT30;64480;52.040;113.502;2024-01-30T04:18:33;-25.11;56.17
75838;SHT30;64480;52.040;113.502;2024-01-30T04:21:37;-25.04;56.32
75838;SHT30;64480;52.040;113.502;2024-01-30T04:24:40;-25.11;55.66
75838;SHT30;64480;52.040;113.502;2024-01-30T04:27:44;-25.18;55.61
75838;SHT30;64480;52.040;113.502;2024-01-30T04:30:47;-25.16;55.83
75838;SHT30;64480;52.040;113.502;2024-01-30T04:33:51;-24.97;56.52
75838;SHT30;64480;52.040;113.502;2024-01-30T04:36:54;-24.90;56.64
75838;SHT30;64480;52.040;113.502;2024-01-30T04:39:59;-25.00;55.90
75838;SHT30;64480;52.040;113.502;2024-01-30T04:43:02;-25.00;55.58
75838;SHT30;64480;52.040;113.502;2024-01-30T04:46:07;-24.76;56.63
75838;SHT30;64480;52.040;113.502;2024-01-30T04:49:11;-24.69;56.17
75838;SHT30;64480;52.040;113.502;2024-01-30T04:52:14;-24.64;55.66
75838;SHT30;64480;52.040;113.502;2024-01-30T04:55:19;-24.57;55.36
75838;SHT30;64480;52.040;113.502;2024-01-30T04:58:25;-24.44;55.76
75838;SHT30;64480;52.040;113.502;2024-01-30T05:01:28;-24.36;55.71
75838;SHT30;64480;52.040;113.502;2024-01-30T05:04:32;-24.33;55.63
75838;SHT30;64480;52.040;113.502;2024-01-30T05:07:36;-24.33;55.24
75838;SHT30;64480;52.040;113.502;2024-01-30T05:10:40;-24.23;55.44
75838;SHT30;64480;52.040;113.502;2024-01-30T05:13:44;-24.17;55.39
75838;SHT30;64480;52.040;113.502;2024-01-30T05:17:01;-24.06;55.52
75838;SHT30;64480;52.040;113.502;2024-01-30T05:20:13;-23.92;55.84
